Time;durP1;ratioP1;P1;durP2;ratioP2;P2;SDS_P1;SDS_P2;PMS_P1;PMS_P2;Temp;Humidity;BMP_temperature;BMP_pressure;BME280_temperature;BME280_humidity;BME280_pressure;Samples;Min_cycle;Max_cycle;Signal;HPM_P1;HPM_P2
2022/04/22 00:00:26;;;;;;;;;17.75;14.00;;;;;-145.45;100.00;57426.63;5069829;28;45273;-72
2022/04/22 00:02:51;;;;;;;;;12.75;11.00;;;;;-145.45;100.00;57426.63;5063690;27;45646;-72
2022/04/22 00:05:17;;;;;;;;;13.50;11.75;;;;;-145.45;100.00;57426.63;5070960;28;45891;-73
2022/04/22 00:07:42;;;;;;;;;12.25;10.75;;;;;-145.45;100.00;57426.63;5060689;27;115730;-73
2022/04/22 00:10:10;;;;;;;;;9.50;9.50;;;;;-145.45;100.00;57426.63;5074305;28;45221;-73
2022/04/22 00:12:35;;;;;;;;;11.50;11.50;;;;;-145.45;100.00;57426.63;5070283;28;45387;-73
2022/04/22 00:15:01;;;;;;;;;13.50;11.75;;;;;-145.45;100.00;57426.63;5061383;28;46106;-73
2022/04/22 00:17:26;;;;;;;;;12.50;11.25;;;;;-145.45;100.00;57426.63;5069686;27;45371;-73
2022/04/22 00:19:51;;;;;;;;;12.00;11.00;;;;;-145.45;100.00;57426.63;5062097;27;45461;-73
2022/04/22 00:22:17;;;;;;;;;18.25;13.25;;;;;-145.45;100.00;57426.63;5073318;28;45272;-73
2022/04/22 00:24:42;;;;;;;;;9.50;8.75;;;;;-145.45;100.00;57426.63;5062063;27;45466;-73
2022/04/22 00:27:07;;;;;;;;;12.75;10.25;;;;;-145.45;100.00;57426.63;5070294;28;46252;-73
2022/04/22 00:29:33;;;;;;;;;12.75;11.00;;;;;-145.45;100.00;57426.63;5061384;27;45444;-73
2022/04/22 00:31:58;;;;;;;;;14.00;9.00;;;;;-145.45;100.00;57426.63;5068486;27;45319;-73
2022/04/22 00:34:23;;;;;;;;;11.00;11.00;;;;;-145.45;100.00;57426.63;5058712;28;47172;-74
2022/04/22 00:36:49;;;;;;;;;10.25;8.75;;;;;-145.45;100.00;57426.63;5071879;28;47043;-72
2022/04/22 00:39:14;;;;;;;;;12.00;10.00;;;;;-145.45;100.00;57426.63;5060264;27;45174;-73
2022/04/22 00:41:39;;;;;;;;;11.00;10.00;;;;;-145.45;100.00;57426.63;5061266;28;45428;-73
2022/04/22 00:44:05;;;;;;;;;12.25;9.75;;;;;-145.45;100.00;57426.63;5057901;28;45372;-73
2022/04/22 00:46:30;;;;;;;;;9.25;9.25;;;;;-145.45;100.00;57426.63;5069185;28;46334;-73
2022/04/22 00:48:56;;;;;;;;;10.00;9.00;;;;;-145.45;100.00;57426.63;5062637;28;45446;-73
2022/04/22 00:51:22;;;;;;;;;10.50;10.50;;;;;-145.45;100.00;57426.63;5072715;28;45284;-73
2022/04/22 00:53:49;;;;;;;;;10.50;7.25;;;;;-145.45;100.00;57426.63;5059857;28;45486;-72
2022/04/22 00:56:15;;;;;;;;;12.00;9.75;;;;;-145.45;100.00;57426.63;5069276;28;45395;-73
2022/04/22 00:58:43;;;;;;;;;10.00;10.00;;;;;-145.45;100.00;57426.63;5059805;27;45341;-73
2022/04/22 01:01:09;;;;;;;;;8.25;7.75;;;;;-145.45;100.00;57426.63;5068461;28;45377;-73
2022/04/22 01:03:34;;;;;;;;;10.75;8.25;;;;;-145.45;100.00;57426.63;5060860;27;45617;-72
2022/04/22 01:11:35;;;;;;;;;9.75;9.75;;;;;-145.45;100.00;57426.63;5074579;28;45474;-72
2022/04/22 01:14:01;;;;;;;;;10.50;10.25;;;;;-145.45;100.00;57426.63;5069474;28;45435;-73
2022/04/22 01:16:28;;;;;;;;;8.00;8.00;;;;;-145.45;100.00;57426.63;5068306;28;46302;-72
2022/04/22 01:18:54;;;;;;;;;9.00;9.00;;;;;-145.45;100.00;57426.63;5069226;27;45313;-73
2022/04/22 01:21:19;;;;;;;;;14.50;10.75;;;;;-145.45;100.00;57426.63;5068501;28;45385;-73
2022/04/22 01:23:45;;;;;;;;;8.50;7.00;;;;;-145.45;100.00;57426.63;5069460;27;45469;-72
2022/04/22 01:26:12;;;;;;;;;8.25;8.25;;;;;-145.45;100.00;57426.63;5066371;28;45491;-72
2022/04/22 01:28:38;;;;;;;;;9.25;8.50;;;;;-145.45;100.00;57426.63;5069079;28;45211;-72
2022/04/22 01:31:03;;;;;;;;;9.75;9.00;;;;;-145.45;100.00;57426.63;5065058;28;45398;-72
2022/04/22 01:33:29;;;;;;;;;8.50;8.50;;;;;-145.45;100.00;57426.63;5067667;28;45345;-72
2022/04/22 01:35:55;;;;;;;;;11.50;7.75;;;;;-145.45;100.00;57426.63;5063744;28;46119;-72
2022/04/22 01:38:20;;;;;;;;;11.50;8.00;;;;;-145.45;100.00;57426.63;5076521;28;45355;-73
2022/04/22 01:40:45;;;;;;;;;7.50;6.75;;;;;-145.45;100.00;57426.63;5068357;28;45477;-73
2022/04/22 01:43:11;;;;;;;;;8.25;7.75;;;;;-145.45;100.00;57426.63;5060924;28;45386;-73
2022/04/22 01:45:36;;;;;;;;;9.25;7.50;;;;;-145.45;100.00;57426.63;5068690;28;46229;-73
2022/04/22 01:48:02;;;;;;;;;10.00;8.00;;;;;-145.45;100.00;57426.63;5065933;27;45365;-73
2022/04/22 01:50:27;;;;;;;;;10.75;9.50;;;;;-145.45;100.00;57426.63;5071487;28;45440;-73
2022/04/22 01:52:53;;;;;;;;;10.75;7.25;;;;;-145.45;100.00;57426.63;5069938;27;45357;-73
2022/04/22 01:55:19;;;;;;;;;9.25;9.25;;;;;-145.45;100.00;57426.63;5065141;28;46963;-73
2022/04/22 01:57:44;;;;;;;;;9.00;9.00;;;;;-145.45;100.00;57426.63;5070487;27;45419;-73
2022/04/22 02:00:10;;;;;;;;;9.00;9.00;;;;;-145.45;100.00;57426.63;5072817;28;45574;-72
2022/04/22 02:02:36;;;;;;;;;7.25;7.25;;;;;-145.45;100.00;57426.63;5060002;28;46417;-73
2022/04/22 02:05:03;;;;;;;;;10.00;9.00;;;;;-145.45;100.00;57426.63;5073182;28;45359;-73
2022/04/22 02:07:28;;;;;;;;;10.25;8.75;;;;;-145.45;100.00;57426.63;5071723;27;45379;-73
2022/04/22 02:09:54;;;;;;;;;9.25;8.00;;;;;-145.45;100.00;57426.63;5065046;28;45420;-73
2022/04/22 02:12:19;;;;;;;;;12.75;9.00;;;;;-145.45;100.00;57426.63;5070131;28;46153;-73
2022/04/22 02:14:44;;;;;;;;;8.00;8.00;;;;;-145.45;100.00;57426.63;5079900;27;47960;-73
2022/04/22 02:17:10;;;;;;;;;7.50;7.25;;;;;-145.45;100.00;57426.63;5074100;28;45334;-73
2022/04/22 02:19:35;;;;;;;;;10.75;9.00;;;;;-145.45;100.00;57426.63;5064410;27;45469;-73
2022/04/22 02:22:01;;;;;;;;;9.50;9.50;;;;;-145.45;100.00;57426.63;5086564;27;45910;-72
2022/04/22 02:24:26;;;;;;;;;8.25;7.50;;;;;-145.45;100.00;57426.63;5064112;27;45360;-72
2022/04/22 02:29:39;;;;;;;;;8.75;8.75;;;;;-145.45;100.00;57426.63;5062838;28;45336;-73
2022/04/22 02:32:05;;;;;;;;;8.25;7.00;;;;;-145.45;100.00;57426.63;5068510;28;46412;-73
2022/04/22 02:34:31;;;;;;;;;8.00;7.50;;;;;-145.45;100.00;57426.63;5061625;27;45370;-73
2022/04/22 02:36:56;;;;;;;;;8.00;8.00;;;;;-145.45;100.00;57426.63;5068836;27;45523;-73
2022/04/22 02:39:21;;;;;;;;;8.75;8.00;;;;;-145.45;100.00;57426.63;5061225;27;45248;-73
2022/04/22 02:47:15;;;;;;;;;9.75;7.50;;;;;-145.45;100.00;57426.63;5064704;28;45424;-73
2022/04/22 02:49:44;;;;;;;;;7.00;5.00;;;;;-145.45;100.00;57426.63;5067464;28;45678;-73
2022/04/22 02:52:14;;;;;;;;;10.75;9.00;;;;;-145.45;100.00;57426.63;5070883;28;45368;-73
2022/04/22 02:54:40;;;;;;;;;9.50;9.00;;;;;-145.45;100.00;57426.63;5060295;28;45967;-73
2022/04/22 02:57:06;;;;;;;;;7.00;7.00;;;;;-145.45;100.00;57426.63;5070224;28;45282;-73
2022/04/22 02:59:32;;;;;;;;;10.75;10.50;;;;;-145.45;100.00;57426.63;5060945;28;45509;-73
2022/04/22 03:01:59;;;;;;;;;9.00;7.00;;;;;-145.45;100.00;57426.63;5069147;27;45422;-73
2022/04/22 03:04:25;;;;;;;;;9.00;9.00;;;;;-145.45;100.00;57426.63;5059675;28;45542;-72
2022/04/22 03:06:51;;;;;;;;;9.00;8.25;;;;;-145.45;100.00;57426.63;5067939;28;45937;-72
2022/04/22 03:09:16;;;;;;;;;7.75;7.75;;;;;-145.45;100.00;57426.63;5067542;27;45869;-73
2022/04/22 03:11:42;;;;;;;;;10.25;10.25;;;;;-145.45;100.00;57426.63;5071917;28;45321;-73
2022/04/22 03:14:07;;;;;;;;;8.75;8.75;;;;;-145.45;100.00;57426.63;5067330;27;46395;-73
2022/04/22 03:16:33;;;;;;;;;10.25;10.25;;;;;-145.45;100.00;57426.63;5065975;28;45237;-73
2022/04/22 03:18:59;;;;;;;;;12.50;8.50;;;;;-145.45;100.00;57426.63;5067776;27;45291;-73
2022/04/22 03:21:25;;;;;;;;;9.75;9.00;;;;;-145.45;100.00;57426.63;5066739;28;45914;-73
2022/04/22 03:23:51;;;;;;;;;8.00;8.00;;;;;-145.45;100.00;57426.63;5067243;27;46291;-73
2022/04/22 03:26:17;;;;;;;;;10.75;10.25;;;;;-145.45;100.00;57426.63;5064610;28;45288;-73
2022/04/22 03:28:42;;;;;;;;;12.00;11.50;;;;;-145.45;100.00;57426.63;5067530;27;45317;-73
2022/04/22 03:31:08;;;;;;;;;9.00;8.50;;;;;-145.45;100.00;57426.63;5063479;28;45336;-73
2022/04/22 03:33:33;;;;;;;;;10.25;9.00;;;;;-145.45;100.00;57426.63;5066138;28;45250;-73
2022/04/22 03:35:59;;;;;;;;;13.00;12.25;;;;;-145.45;100.00;57426.63;5062606;28;45356;-73
2022/04/22 03:38:25;;;;;;;;;13.00;12.25;;;;;-145.45;100.00;57426.63;5065126;28;45338;-73
2022/04/22 03:40:52;;;;;;;;;18.00;18.00;;;;;-145.45;100.00;57426.63;5064981;28;45440;-73
2022/04/22 03:43:20;;;;;;;;;17.00;17.00;;;;;-145.45;100.00;57426.63;5074289;28;48001;-73
2022/04/22 03:45:45;;;;;;;;;28.50;24.75;;;;;-145.45;100.00;57426.63;5067365;28;45347;-73
2022/04/22 03:48:12;;;;;;;;;43.25;35.25;;;;;-145.45;100.00;57426.63;5062973;27;45296;-73
2022/04/22 03:50:38;;;;;;;;;42.75;35.75;;;;;-145.45;100.00;57426.63;5070973;28;45652;-73
2022/04/22 03:53:04;;;;;;;;;48.00;37.75;;;;;-145.45;100.00;57426.63;5067682;27;47083;-73
2022/04/22 03:55:30;;;;;;;;;48.25;37.50;;;;;-145.45;100.00;57426.63;5071226;28;45526;-73
2022/04/22 03:58:11;;;;;;;;;56.50;43.00;;;;;-145.45;100.00;57426.63;5066437;28;45312;-73
2022/04/22 04:00:45;;;;;;;;;66.00;50.00;;;;;-145.45;100.00;57426.63;5064253;28;45396;-73
2022/04/22 04:03:15;;;;;;;;;63.25;48.00;;;;;-145.45;100.00;57426.63;5062877;28;45374;-73
2022/04/22 04:05:47;;;;;;;;;54.50;44.25;;;;;-145.45;100.00;57426.63;5070710;28;45556;-73
2022/04/22 04:08:13;;;;;;;;;57.50;46.00;;;;;-145.45;100.00;57426.63;5071322;28;45232;-73
2022/04/22 04:16:06;;;;;;;;;59.75;45.25;;;;;-145.45;100.00;57426.63;5066291;28;45331;-73
2022/04/22 04:18:37;;;;;;;;;60.75;46.00;;;;;-145.45;100.00;57426.63;5068960;28;45428;-73
2022/04/22 04:23:49;;;;;;;;;59.25;46.50;;;;;-145.45;100.00;57426.63;5070207;28;45794;-73
2022/04/22 04:26:15;;;;;;;;;56.75;44.00;;;;;-145.45;100.00;57426.63;5066684;27;45378;-73
2022/04/22 04:28:43;;;;;;;;;54.25;42.50;;;;;-145.45;100.00;57426.63;5066603;28;45272;-72
2022/04/22 04:31:11;;;;;;;;;50.50;42.25;;;;;-145.45;100.00;57426.63;5062617;28;45232;-72
2022/04/22 04:33:36;;;;;;;;;53.50;42.75;;;;;-145.45;100.00;57426.63;5063656;28;48200;-72
2022/04/22 04:36:02;;;;;;;;;48.25;39.00;;;;;-145.45;100.00;57426.63;5064966;28;45354;-73
2022/04/22 04:38:28;;;;;;;;;50.50;37.25;;;;;-145.45;100.00;57426.63;5077828;28;45304;-72
2022/04/22 04:40:54;;;;;;;;;45.00;36.00;;;;;-145.45;100.00;57426.63;5075302;27;45545;-73
2022/04/22 04:43:20;;;;;;;;;45.75;35.75;;;;;-145.45;100.00;57426.63;5064765;27;45415;-73
2022/04/22 04:45:46;;;;;;;;;44.00;35.25;;;;;-145.45;100.00;57426.63;5067851;28;45689;-73
2022/04/22 04:48:11;;;;;;;;;47.50;37.25;;;;;-145.45;100.00;57426.63;5078459;27;45323;-73
2022/04/22 04:50:40;;;;;;;;;44.00;35.00;;;;;-145.45;100.00;57426.63;5074439;28;45406;-73
2022/04/22 04:53:05;;;;;;;;;40.50;36.25;;;;;-145.45;100.00;57426.63;5069420;27;45406;-74
2022/04/22 04:55:30;;;;;;;;;36.50;32.75;;;;;-145.45;100.00;57426.63;5066316;28;45432;-74
2022/04/22 04:57:56;;;;;;;;;47.50;34.50;;;;;-145.45;100.00;57426.63;5069757;28;45435;-74
2022/04/22 05:00:21;;;;;;;;;34.00;32.75;;;;;-145.45;100.00;57426.63;5063678;28;45368;-73
2022/04/22 05:02:47;;;;;;;;;36.50;34.75;;;;;-145.45;100.00;57426.63;5069565;27;45458;-74
2022/04/22 05:05:13;;;;;;;;;37.25;34.75;;;;;-145.45;100.00;57426.63;5066732;28;45350;-74
2022/04/22 05:07:49;;;;;;;;;36.25;33.25;;;;;-145.45;100.00;57426.63;5073241;27;45430;-72
2022/04/22 05:10:16;;;;;;;;;39.75;36.00;;;;;-145.45;100.00;57426.63;5066273;27;45463;-72
2022/04/22 05:12:41;;;;;;;;;48.50;41.00;;;;;-145.45;100.00;57426.63;5072885;28;46013;-72
2022/04/22 05:15:08;;;;;;;;;40.50;35.25;;;;;-145.45;100.00;57426.63;5066787;27;45429;-72
2022/04/22 05:17:34;;;;;;;;;42.00;36.00;;;;;-145.45;100.00;57426.63;5071001;28;45418;-73
2022/04/22 05:20:00;;;;;;;;;47.00;38.00;;;;;-145.45;100.00;57426.63;5061513;28;46319;-72
2022/04/22 05:22:25;;;;;;;;;35.75;33.00;;;;;-145.45;100.00;57426.63;5073707;28;45472;-72
2022/04/22 05:24:51;;;;;;;;;41.75;35.25;;;;;-145.45;100.00;57426.63;5063895;27;45530;-73
2022/04/22 05:27:16;;;;;;;;;45.25;37.75;;;;;-145.45;100.00;57426.63;5072473;28;45387;-72
2022/04/22 05:32:37;;;;;;;;;53.25;41.75;;;;;-145.45;100.00;57426.63;5070206;28;45545;-72
2022/04/22 05:35:08;;;;;;;;;50.75;41.50;;;;;-145.45;100.00;57426.63;5063833;28;45399;-72
2022/04/22 05:37:53;;;;;;;;;54.75;43.75;;;;;-145.45;100.00;57426.63;5066856;28;45423;-72
2022/04/22 05:40:23;;;;;;;;;50.50;40.75;;;;;-145.45;100.00;57426.63;5067612;28;45470;-72
2022/04/22 05:42:50;;;;;;;;;46.25;39.75;;;;;-145.45;100.00;57426.63;5065599;28;46715;-72
2022/04/22 05:45:17;;;;;;;;;48.25;41.25;;;;;-145.45;100.00;57426.63;5062788;28;45389;-72
2022/04/22 05:47:43;;;;;;;;;54.25;41.25;;;;;-145.45;100.00;57426.63;5069117;27;45665;-72
2022/04/22 05:50:10;;;;;;;;;50.50;39.50;;;;;-145.45;100.00;57426.63;5069548;28;45425;-72
2022/04/22 05:52:37;;;;;;;;;48.75;40.25;;;;;-145.45;100.00;57426.63;5075657;28;47688;-72
2022/04/22 05:55:05;;;;;;;;;54.25;43.00;;;;;-145.45;100.00;57426.63;5062722;28;45315;-73
2022/04/22 05:57:31;;;;;;;;;52.75;43.00;;;;;-145.45;100.00;57426.63;5070618;28;45367;-72
2022/04/22 06:00:03;;;;;;;;;44.50;35.50;;;;;-145.45;100.00;57426.63;5064178;28;45514;-73
2022/04/22 06:02:29;;;;;;;;;55.25;45.25;;;;;-145.45;100.00;57426.63;5069296;28;48180;-73
2022/04/22 06:04:54;;;;;;;;;55.25;44.00;;;;;-145.45;100.00;57426.63;5062749;28;45413;-72
2022/04/22 06:07:20;;;;;;;;;53.50;42.75;;;;;-145.45;100.00;57426.63;5071346;27;45218;-72
2022/04/22 06:12:29;;;;;;;;;54.75;43.50;;;;;-145.45;100.00;57426.63;5071425;28;45279;-72
2022/04/22 06:14:59;;;;;;;;;60.25;45.25;;;;;-145.45;100.00;57426.63;5063949;28;45292;-72
2022/04/22 06:17:25;;;;;;;;;54.25;43.75;;;;;-145.45;100.00;57426.63;5073813;27;45405;-72
2022/04/22 06:19:50;;;;;;;;;49.50;38.25;;;;;-145.45;100.00;57426.63;5073984;27;45328;-72
2022/04/22 06:22:15;;;;;;;;;53.25;42.75;;;;;-145.45;100.00;57426.63;5068643;28;45347;-72
2022/04/22 06:24:41;;;;;;;;;47.25;38.25;;;;;-145.45;100.00;57426.63;5062755;27;45484;-72
2022/04/22 06:27:06;;;;;;;;;35.00;29.00;;;;;-145.45;100.00;57426.63;5069981;27;45380;-72
2022/04/22 06:29:32;;;;;;;;;41.00;36.00;;;;;-145.45;100.00;57426.63;5061363;27;45705;-71
2022/04/22 06:31:57;;;;;;;;;37.75;32.25;;;;;-145.45;100.00;57426.63;5068032;28;45466;-71
2022/04/22 06:34:23;;;;;;;;;37.25;35.25;;;;;-145.45;100.00;57426.63;5076555;27;46027;-72
2022/04/22 06:36:49;;;;;;;;;42.25;35.00;;;;;-145.45;100.00;57426.63;5066704;28;45368;-71
2022/04/22 06:39:15;;;;;;;;;33.00;29.00;;;;;-145.45;100.00;57426.63;5060464;27;45253;-71
2022/04/22 06:47:09;;;;;;;;;29.75;27.50;;;;;-145.45;100.00;57426.63;5068644;28;45376;-71
2022/04/22 06:49:35;;;;;;;;;30.00;28.00;;;;;-145.45;100.00;57426.63;5067563;28;45385;-71
2022/04/22 06:52:01;;;;;;;;;32.50;30.00;;;;;-145.45;100.00;57426.63;5071110;27;45576;-72
2022/04/22 06:54:27;;;;;;;;;31.50;29.00;;;;;-145.45;100.00;57426.63;5059967;28;45513;-72
2022/04/22 06:56:53;;;;;;;;;33.25;29.00;;;;;-145.45;100.00;57426.63;5071537;28;45458;-71
2022/04/22 06:59:21;;;;;;;;;27.25;25.50;;;;;-145.45;100.00;57426.63;5058945;28;46173;-72
2022/04/22 07:01:47;;;;;;;;;33.25;29.00;;;;;-145.45;100.00;57426.63;5073146;28;47183;-71
2022/04/22 07:04:13;;;;;;;;;24.50;24.00;;;;;-145.45;100.00;57426.63;5074427;28;45476;-72
2022/04/22 07:06:41;;;;;;;;;31.00;26.25;;;;;-145.45;100.00;57426.63;5067550;28;45404;-72
2022/04/22 07:09:07;;;;;;;;;27.00;25.00;;;;;-145.45;100.00;57426.63;5069492;27;45319;-71
2022/04/22 07:11:35;;;;;;;;;28.00;24.00;;;;;-145.45;100.00;57426.63;5066616;28;47453;-72
2022/04/22 07:14:01;;;;;;;;;25.75;24.50;;;;;-145.45;100.00;57426.63;5068899;27;45448;-72
2022/04/22 07:16:27;;;;;;;;;25.25;23.25;;;;;-145.45;100.00;57426.63;5068562;28;45409;-72
2022/04/22 07:18:52;;;;;;;;;28.00;24.25;;;;;-145.45;100.00;57426.63;5074745;28;46897;-72
2022/04/22 07:21:18;;;;;;;;;21.25;18.75;;;;;-145.45;100.00;57426.63;5064217;28;45286;-72
2022/04/22 07:23:44;;;;;;;;;15.00;15.00;;;;;-145.45;100.00;57426.63;5077595;28;45408;-72
2022/04/22 07:26:10;;;;;;;;;17.00;16.25;;;;;-145.45;100.00;57426.63;5069393;28;45265;-72
2022/04/22 07:28:38;;;;;;;;;19.50;18.25;;;;;-145.45;100.00;57426.63;5067964;28;45214;-73
2022/04/22 07:31:04;;;;;;;;;13.50;13.50;;;;;-145.45;100.00;57426.63;5064190;28;45917;-73
2022/04/22 07:33:30;;;;;;;;;18.25;16.50;;;;;-145.45;100.00;57426.63;5066464;28;45209;-72
2022/04/22 07:35:56;;;;;;;;;21.25;18.00;;;;;-145.45;100.00;57426.63;5063078;28;45420;-72
2022/04/22 07:38:21;;;;;;;;;20.25;16.75;;;;;-145.45;100.00;57426.63;5065428;28;45482;-72
2022/04/22 07:40:50;;;;;;;;;20.00;16.25;;;;;-145.45;100.00;57426.63;5062130;28;45194;-71
2022/04/22 07:48:46;;;;;;;;;15.00;15.00;;;;;-145.45;100.00;57426.63;5061865;28;45179;-72
2022/04/22 07:51:11;;;;;;;;;14.33;14.33;;;;;-145.45;100.00;57426.63;5067240;28;48148;-72
2022/04/22 07:53:37;;;;;;;;;15.00;14.00;;;;;-145.45;100.00;57426.63;5060923;28;45271;-71
2022/04/22 07:56:03;;;;;;;;;15.33;14.67;;;;;-145.45;100.00;57426.63;5067334;28;45348;-72
2022/04/22 07:58:31;;;;;;;;;16.33;15.00;;;;;-145.45;100.00;57426.63;5059851;28;46720;-72
2022/04/22 08:00:57;;;;;;;;;15.67;15.00;;;;;-145.45;100.00;57426.63;5063905;28;46095;-72
2022/04/22 08:03:23;;;;;;;;;16.67;14.00;;;;;-145.45;100.00;57426.63;5070886;28;45428;-70
2022/04/22 08:05:48;;;;;;;;;14.00;14.00;;;;;-145.45;100.00;57426.63;5062833;28;44816;-69
2022/04/22 08:08:13;;;;;;;;;16.00;15.00;;;;;-145.45;100.00;57426.63;5070195;28;45397;-66
2022/04/22 08:10:39;;;;;;;;;13.67;12.67;;;;;-145.45;100.00;57426.63;5063122;28;45636;-70
2022/04/22 08:13:05;;;;;;;;;15.67;14.33;;;;;-145.45;100.00;57426.63;5072572;28;45376;-71
2022/04/22 08:15:33;;;;;;;;;15.33;15.00;;;;;-145.45;100.00;57426.63;5072261;27;45478;-71
2022/04/22 08:17:58;;;;;;;;;13.00;11.33;;;;;-145.45;100.00;57426.63;5061592;28;45455;-70
2022/04/22 08:20:24;;;;;;;;;13.67;12.67;;;;;-145.45;100.00;57426.63;5064612;28;45426;-71
2022/04/22 08:22:49;;;;;;;;;12.00;12.00;;;;;-145.45;100.00;57426.63;5073400;27;45295;-72
2022/04/22 08:25:15;;;;;;;;;15.33;12.67;;;;;-145.45;100.00;57426.63;5063719;28;45855;-72
2022/04/22 08:27:40;;;;;;;;;13.00;12.00;;;;;-145.45;100.00;57426.63;5078331;28;45817;-72
2022/04/22 08:30:07;;;;;;;;;12.33;12.33;;;;;-145.45;100.00;57426.63;5075045;27;46116;-72
2022/04/22 08:32:33;;;;;;;;;14.00;12.00;;;;;-145.45;100.00;57426.63;5070015;28;45378;-72
2022/04/22 08:34:58;;;;;;;;;10.00;10.00;;;;;-145.45;100.00;57426.63;5063998;28;45582;-72
2022/04/22 08:37:24;;;;;;;;;15.33;13.67;;;;;-145.45;100.00;57426.63;5067886;28;45524;-72
2022/04/22 08:39:49;;;;;;;;;11.00;11.00;;;;;-145.45;100.00;57426.63;5063957;28;45268;-72
2022/04/22 08:42:15;;;;;;;;;11.33;11.33;;;;;-145.45;100.00;57426.63;5070045;28;45332;-71
2022/04/22 08:44:41;;;;;;;;;11.33;10.00;;;;;-145.45;100.00;57426.63;5062958;28;45270;-72
2022/04/22 08:50:06;;;;;;;;;14.67;9.33;;;;;-145.45;100.00;57426.63;5070889;28;45914;-71
2022/04/22 08:52:34;;;;;;;;;13.00;11.00;;;;;-145.45;100.00;57426.63;5064640;28;45478;-72
2022/04/22 08:55:02;;;;;;;;;10.00;10.00;;;;;-145.45;100.00;57426.63;5077549;28;45358;-72
2022/04/22 08:57:28;;;;;;;;;10.67;9.67;;;;;-145.45;100.00;57426.63;5076406;28;45525;-72
2022/04/22 09:00:05;;;;;;;;;11.33;10.00;;;;;-145.45;100.00;57426.63;5062834;28;45232;-72
2022/04/22 09:02:30;;;;;;;;;9.00;9.00;;;;;-145.45;100.00;57426.63;5071999;27;45436;-72
2022/04/22 09:04:56;;;;;;;;;10.33;7.67;;;;;-145.45;100.00;57426.63;5065818;28;45365;-72
2022/04/22 09:07:26;;;;;;;;;9.67;9.67;;;;;-145.45;100.00;57426.63;5072332;27;45343;-73
2022/04/22 09:09:52;;;;;;;;;11.00;10.67;;;;;-145.45;100.00;57426.63;5063834;28;47559;-73
2022/04/22 09:12:25;;;;;;;;;13.33;11.00;;;;;-145.45;100.00;57426.63;5087785;27;45263;-73
2022/04/22 09:14:56;;;;;;;;;10.33;10.33;;;;;-145.45;100.00;57426.63;5064255;28;45374;-73
2022/04/22 09:17:28;;;;;;;;;11.00;10.00;;;;;-145.45;100.00;57426.63;5074128;28;45440;-73
2022/04/22 09:19:57;;;;;;;;;9.67;9.67;;;;;-145.45;100.00;57426.63;5063482;27;46265;-73
2022/04/22 09:22:27;;;;;;;;;10.67;9.00;;;;;-145.45;100.00;57426.63;5073063;28;45333;-73
2022/04/22 09:24:56;;;;;;;;;11.67;10.00;;;;;-145.45;100.00;57426.63;5076303;27;45435;-73
2022/04/22 09:27:34;;;;;;;;;10.67;9.00;;;;;-145.45;100.00;57426.63;5068096;28;45416;-72
2022/04/22 09:30:02;;;;;;;;;10.33;9.00;;;;;-145.45;100.00;57426.63;5062883;28;45363;-72
2022/04/22 09:32:30;;;;;;;;;9.00;9.00;;;;;-145.45;100.00;57426.63;5067938;28;45367;-72
2022/04/22 09:34:58;;;;;;;;;8.67;8.67;;;;;-145.45;100.00;57426.63;5063502;28;45375;-73
2022/04/22 09:42:39;;;;;;;;;9.00;7.00;;;;;-145.45;100.00;57426.63;5063118;28;45671;-72
2022/04/22 09:43:17;;;;;;;;;14.67;10.00;;;;;-145.45;100.00;57426.63;5064081;28;45394;-73
2022/04/22 09:45:44;;;;;;;;;6.67;6.67;;;;;-145.45;100.00;57426.63;5066063;28;45395;-73
2022/04/22 09:48:14;;;;;;;;;9.67;9.67;;;;;-145.45;100.00;57426.63;5065809;27;45497;-73
2022/04/22 09:50:44;;;;;;;;;8.33;8.33;;;;;-145.45;100.00;57426.63;5072743;28;46197;-73
2022/04/22 09:53:12;;;;;;;;;7.00;7.00;;;;;-145.45;100.00;57426.63;5083417;27;45400;-73
2022/04/22 09:55:56;;;;;;;;;9.00;9.00;;;;;-145.45;100.00;57426.63;5064353;28;44877;-73
2022/04/22 09:58:26;;;;;;;;;7.67;7.67;;;;;-145.45;100.00;57426.63;5077904;28;47266;-73
2022/04/22 10:00:57;;;;;;;;;8.67;7.00;;;;;-145.45;100.00;57426.63;5071818;28;45379;-73
2022/04/22 10:03:25;;;;;;;;;8.00;8.00;;;;;-145.45;100.00;57426.63;5073335;28;45311;-73
2022/04/22 10:05:51;;;;;;;;;7.67;7.67;;;;;-145.45;100.00;57426.63;5072646;28;45405;-74
2022/04/22 10:08:20;;;;;;;;;7.00;7.00;;;;;-145.45;100.00;57426.63;5072265;28;45233;-73
2022/04/22 10:10:47;;;;;;;;;9.67;8.67;;;;;-145.45;100.00;57426.63;5065909;28;45916;-73
2022/04/22 10:13:17;;;;;;;;;6.00;6.00;;;;;-145.45;100.00;57426.63;5073028;27;45369;-73
2022/04/22 10:15:45;;;;;;;;;5.00;5.00;;;;;-145.45;100.00;57426.63;5065416;28;45395;-73
2022/04/22 10:18:15;;;;;;;;;7.67;6.33;;;;;-145.45;100.00;57426.63;5069111;28;45296;-73
2022/04/22 10:20:43;;;;;;;;;5.33;5.00;;;;;-145.45;100.00;57426.63;5072133;28;47266;-74
2022/04/22 10:23:09;;;;;;;;;5.00;5.00;;;;;-145.45;100.00;57426.63;5068369;27;45461;-73
2022/04/22 10:25:34;;;;;;;;;7.00;6.00;;;;;-145.45;100.00;57426.63;5072231;28;45273;-73
2022/04/22 10:28:03;;;;;;;;;8.00;7.00;;;;;-145.45;100.00;57426.63;5066363;28;45961;-73
2022/04/22 10:30:29;;;;;;;;;7.33;7.00;;;;;-145.45;100.00;57426.63;5066548;28;45395;-73
2022/04/22 10:32:56;;;;;;;;;7.00;6.33;;;;;-145.45;100.00;57426.63;5064237;28;45293;-73
2022/04/22 10:35:23;;;;;;;;;6.00;6.00;;;;;-145.45;100.00;57426.63;5065822;28;45278;-73
2022/04/22 10:37:49;;;;;;;;;9.67;7.00;;;;;-145.45;100.00;57426.63;5068313;27;45473;-74
2022/04/22 10:40:23;;;;;;;;;6.67;6.67;;;;;-145.45;100.00;57426.63;5072435;28;48134;-74
2022/04/22 10:42:50;;;;;;;;;7.67;5.00;;;;;-145.45;100.00;57426.63;5059964;28;45236;-74
2022/04/22 10:48:18;;;;;;;;;6.00;6.00;;;;;-145.45;100.00;57426.63;5061943;28;45582;-73
2022/04/22 10:50:55;;;;;;;;;6.33;5.33;;;;;-145.45;100.00;57426.63;5074402;28;48265;-73
2022/04/22 10:53:29;;;;;;;;;8.33;8.33;;;;;-145.45;100.00;57426.63;5065355;27;45366;-73
2022/04/22 10:56:26;;;;;;;;;8.67;7.00;;;;;-145.45;100.00;57426.63;5066702;28;45308;-74
2022/04/22 10:59:21;;;;;;;;;5.67;5.67;;;;;-145.45;100.00;57426.63;5059207;28;45604;-73
2022/04/22 11:01:47;;;;;;;;;8.00;8.00;;;;;-145.45;100.00;57426.63;5066762;28;45384;-74
2022/04/22 11:04:21;;;;;;;;;7.00;6.00;;;;;-145.45;100.00;57426.63;5069827;27;45378;-74
2022/04/22 11:06:47;;;;;;;;;5.67;5.67;;;;;-145.45;100.00;57426.63;5067761;28;45429;-74
2022/04/22 11:09:31;;;;;;;;;8.00;7.00;;;;;-145.45;100.00;57426.63;5068545;27;45410;-74
2022/04/22 11:11:58;;;;;;;;;6.33;4.33;;;;;-145.45;100.00;57426.63;5072237;28;45406;-74
2022/04/22 11:14:28;;;;;;;;;7.00;7.00;;;;;-145.45;100.00;57426.63;5065393;27;45286;-74
2022/04/22 11:16:55;;;;;;;;;7.67;6.33;;;;;-145.45;100.00;57426.63;5072176;28;45692;-75
2022/04/22 11:19:21;;;;;;;;;3.67;2.67;;;;;-145.45;100.00;57426.63;5063355;28;46395;-74
2022/04/22 11:21:52;;;;;;;;;6.00;6.00;;;;;-145.45;100.00;57426.63;5068904;28;45507;-75
2022/04/22 11:24:28;;;;;;;;;4.33;4.33;;;;;-145.45;100.00;57426.63;5079579;27;45516;-74
2022/04/22 11:27:13;;;;;;;;;5.00;5.00;;;;;-145.45;100.00;57426.63;5068385;28;45540;-75
2022/04/22 11:29:40;;;;;;;;;3.75;3.75;;;;;-145.45;100.00;57426.63;5059661;28;45891;-75
2022/04/22 11:32:22;;;;;;;;;3.00;3.00;;;;;-145.45;100.00;57426.63;5069001;28;45528;-74
2022/04/22 11:34:53;;;;;;;;;6.00;3.75;;;;;-145.45;100.00;57426.63;5073449;27;45244;-74
2022/04/22 11:37:21;;;;;;;;;8.00;5.33;;;;;-145.45;100.00;57426.63;5065375;28;45600;-74
2022/04/22 11:39:50;;;;;;;;;7.25;5.75;;;;;-145.45;100.00;57426.63;5061087;28;45237;-74
2022/04/22 11:42:17;;;;;;;;;6.50;4.75;;;;;-145.45;100.00;57426.63;5067599;28;46112;-74
2022/04/22 11:44:44;;;;;;;;;4.25;4.25;;;;;-145.45;100.00;57426.63;5060543;28;45388;-74
2022/04/22 11:47:10;;;;;;;;;9.75;6.75;;;;;-145.45;100.00;57426.63;5068136;27;45267;-74